Latest Coastal Weather Observations for Wilsons Promontory

IDT60701

Issued at 8:32 pm EST Saturday 24 June 2017 (issued every 10 minutes, with the page automatically refreshed every 10 minutes)

About coastal observations | Map of coastal stations | Coastal observations for TAS | Marine services | Other Formats
Station Details ID: 085096 Name: WILSONS PROMONTORY LIGHTHOUSE Lat: -39.13 Lon: 146.42 Height: 95.0 m
Data from the previous 72 hours. | See also: Recent months at Wilsons Promontory
Date/Time
EST
Temp
°C
Wind Pressure Rain since
9am
mm
Weather Cloud Vis
km
Sea
Height
m
Swell
Dir  Spd
kts
Gust
kts
hPa Trend Height
m
Period
s
Dir
24/08:30pm 9.2 W 23 32 1014.7 - 0.8 - - - - - - -
24/08:01pm 9.9 W 17 30 1015.0 - 0.8 - - - - - - -
24/08:00pm 10.1 W 17 25 1015.1 - 0.8 - - - - - - -
24/07:44pm 9.9 W 17 27 1015.1 - 0.8 - - - - - - -
24/07:30pm 9.8 W 21 30 1014.8 - 0.8 - - - - - - -
24/07:11pm 9.9 W 17 27 1015.0 - 0.8 - - - - - - -
24/07:00pm 9.9 W 19 27 1014.7 - 0.8 - - - - - - -
24/06:42pm 9.5 W 15 25 1014.9 - 0.8 - - - - - - -
24/06:30pm 9.1 W 18 26 1015.0 - 0.8 - - - - - - -
24/06:16pm 8.8 W 17 27 1014.9 - 0.8 - - - - - - -
24/06:00pm 9.1 W 19 27 1015.0 - 0.8 - - - - - - -
24/05:37pm 9.5 W 19 29 1014.9 - 0.6 - - - - - - -
24/05:30pm 9.7 W 18 26 1014.6 - 0.6 - - - - - - -
24/05:02pm 9.9 W 16 26 1014.6 - 0.6 - - - - - - -
24/05:00pm 9.9 W 15 24 1014.7 - 0.6 - - - - - - -
24/04:30pm 9.6 W 16 22 1014.8 - 0.6 - - - - - - -
24/04:00pm 9.1 W 21 34 1014.7 - 0.4 - - - - - - -
24/03:34pm 9.8 W 16 26 1014.7 - 0.4 - - - - - - -
24/03:30pm 9.9 WSW 19 27 1014.7 - 0.4 - - - - - - -
24/03:12pm 10.0 WSW 20 25 1014.5 - 0.4 - - - - - - -
24/03:00pm 9.6 W 18 26 1014.8 - 0.4 - - - - - - -
24/02:31pm 9.9 W 17 27 1014.3 - 0.4 - - - - - - -
24/02:30pm 10.1 W 17 25 1014.4 - 0.4 - - - - - - -
24/02:00pm 10.4 W 19 26 1014.5 - 0.4 - - - - - - -
24/01:30pm 10.1 W 16 27 1014.5 - 0.4 - - - - - - -
24/01:00pm 10.9 W 18 25 1014.6 - 0.4 - - - - - - -
24/12:30pm 10.0 W 15 21 1014.9 - 0.4 - - - - - - -
24/12:00pm 10.1 W 18 29 1015.1 - 0.2 - - - - - - -
24/11:36am 10.2 W 17 27 1015.2 - 0.2 - - - - - - -
24/11:30am 10.6 W 16 24 1015.6 - 0.2 - - - - - - -
24/11:00am 10.2 W 18 25 1015.7 - 0.2 - - - - - - -
24/10:30am 10.3 W 15 21 1016.1 - 0.2 - - - - - - -
24/10:09am 10.3 W 17 31 1015.7 - 0.2 - - - - - - -
24/10:00am 10.0 W 15 23 1015.8 - 0.2 - - - - - - -
24/09:30am 9.1 WSW 24 34 1015.2 - 0.2 - - - - - - -
24/09:00am 9.3 W 25 39 1015.3 - 5.6 - - - - - - -
24/08:32am 9.5 WSW 24 34 1015.2 - 5.6 - - - - - - -
24/08:30am 9.4 WSW 26 34 1015.2 - 5.6 - - - - - - -
24/08:18am 9.4 W 18 30 1014.8 - 5.6 - - - - - - -
24/08:00am 9.4 WSW 27 32 1014.6 - 5.6 - - - - - - -
24/07:30am 9.5 WSW 22 29 1014.5 - 5.6 - - - - - - -
24/07:10am 9.4 WSW 29 39 1014.2 - 5.6 - - - - - - -
24/07:00am 9.4 SW 33 41 1013.6 - 5.6 - - - - - - -
24/06:46am 9.6 WSW 37 42 1013.0 - 5.6 - - - - - - -
24/06:42am 10.0 W 21 32 1013.5 - 5.6 - - - - - - -
24/06:30am 9.6 W 19 27 1013.6 - 5.6 - - - - - - -
24/06:06am 9.4 W 16 26 1013.6 - 5.6 - - - - - - -
24/06:00am 9.3 W 18 27 1013.6 - 5.6 - - - - - - -
24/05:58am 9.3 W 19 27 1013.5 - 5.6 - - - - - - -
24/05:30am 9.3 WSW 25 30 1013.2 - 5.6 - - - - - - -
24/05:00am 9.6 WSW 32 38 1012.2 - 5.6 - - - - - - -
24/04:30am 9.7 WSW 33 40 1011.9 - 5.6 - - - - - - -
24/04:00am 9.6 SW 35 42 1011.4 - 5.6 - - - - - - -
24/03:30am 9.8 SW 31 43 1011.1 - 5.6 - - - - - - -
24/03:21am 9.9 SW 32 43 1011.1 - 5.6 - - - - - - -
24/03:00am 10.0 SW 31 39 1011.5 - 5.6 - - - - - - -
24/02:59am 10.0 SW 31 39 1011.3 - 5.6 - - - - - - -
24/02:45am 10.1 SW 17 43 1010.9 - 5.6 - - - - - - -
24/02:30am 10.4 WSW 40 46 1010.7 - 5.6 - - - - - - -
24/02:00am 10.6 WSW 40 48 1010.3 - 5.6 - - - - - - -
24/01:30am 10.5 SW 41 47 1010.1 - 5.6 - - - - - - -
24/01:03am 10.8 WSW 40 50 1010.2 - 5.6 - - - - - - -
24/01:00am 10.8 WSW 41 50 1009.7 - 5.6 - - - - - - -
24/12:44am 11.0 WSW 40 50 1009.9 - 5.6 - - - - - - -
24/12:30am 10.9 WSW 41 49 1009.2 - 5.6 - - - - - - -
24/12:00am 10.6 WSW 40 47 1009.6 - 5.6 - - - - - - -
 
Date/Time
EST
Temp
°C
Wind Pressure Rain since
9am
mm
Weather Cloud Vis
km
Sea
Height
m
Swell
Dir  Spd
kts
Gust
kts
hPa Trend Height
m
Period
s
Dir
23/11:30pm 10.8 WSW 39 50 1009.4 - 5.6 - - - - - - -
23/11:17pm 10.6 WSW 43 53 1009.0 - 5.6 - - - - - - -
23/11:00pm 10.6 WSW 44 50 1009.1 - 5.6 - - - - - - -
23/10:30pm 10.4 SW 40 48 1009.1 - 5.6 - - - - - - -
23/10:12pm 10.3 WSW 40 51 1008.9 - 5.6 - - - - - - -
23/10:00pm 10.2 SW 39 48 1008.3 - 5.6 - - - - - - -
23/09:30pm 10.6 SW 34 46 1008.0 - 5.4 - - - - - - -
23/09:24pm 10.8 WSW 36 46 1008.4 - 5.4 - - - - - - -
23/09:22pm 11.0 WSW 41 46 1008.2 - 5.4 - - - - - - -
23/09:00pm 11.4 W 26 39 1009.1 - 3.6 - - - - - - -
23/08:30pm 10.9 W 26 39 1008.6 - 3.4 - - - - - - -
23/08:00pm 11.6 W 32 47 1008.5 - 1.6 - - - - - - -
23/07:30pm 12.1 W 22 38 1008.5 - 0.4 - - - - - - -
23/07:00pm 11.7 WNW 24 38 1008.2 - 0.4 - - - - - - -
23/06:30pm 11.2 WNW 22 37 1008.2 - 0.4 - - - - - - -
23/06:00pm 11.5 WNW 26 43 1008.2 - 0.4 - - - - - - -
23/05:30pm 11.5 WNW 27 45 1007.9 - 0.4 - - - - - - -
23/05:00pm 12.6 WNW 24 50 1008.3 - 0.0 - - - - - - -
23/04:30pm 12.6 W 20 40 1008.3 - 0.0 - - - - - - -
23/04:00pm 12.7 WNW 21 40 1008.2 - 0.0 - - - - - - -
23/03:30pm 12.8 WNW 21 38 1009.1 - 0.0 - - - - - - -
23/03:00pm 12.7 W 19 34 1009.2 - 0.0 - - - - - - -
23/02:34pm 12.6 W 16 28 1009.9 - 0.0 - - - - - - -
23/02:30pm 12.6 SW 12 28 1009.8 - 0.0 - - - - - - -
23/02:00pm 12.6 WNW 13 28 1010.2 - 0.0 - - - - - - -
23/01:43pm 12.8 WNW 18 31 1010.2 - 0.0 - - - - - - -
23/01:30pm 13.0 WNW 6 18 1010.5 - 0.0 - - - - - - -
23/01:00pm 12.7 NW 7 14 1011.3 - 0.0 - - - - - - -
23/12:30pm 12.5 NNW 9 17 1012.2 - 0.0 - - - - - - -
23/12:00pm 12.3 NNW 12 21 1013.0 - 0.0 - - - - - - -
23/11:44am 11.9 N 18 29 1012.7 - 0.0 - - - - - - -
23/11:30am 12.0 NNW 7 37 1013.4 - 0.0 - - - - - - -
23/11:28am 11.9 W 7 37 1013.5 - 0.0 - - - - - - -
23/11:26am 11.8 NW 22 37 1013.0 - 0.0 - - - - - - -
23/11:00am 12.0 N 9 28 1014.1 - 0.0 - - - - - - -
23/10:42am 11.5 NNW 15 32 1014.5 - 0.0 - - - - - - -
23/10:30am 11.5 NNW 14 32 1014.9 - 0.0 - - - - - - -
23/10:00am 11.0 NNW 11 27 1015.3 - 0.0 - - - - - - -
23/09:30am 10.8 NNW 14 23 1015.7 - 0.0 - - - - - - -
23/09:00am 10.4 N 12 29 1016.1 - 0.0 - - - - - - -
23/08:30am 10.6 WNW 9 22 1016.4 - 0.0 - - - - - - -
23/08:00am 10.5 N 12 25 1016.4 - 0.0 - - - - - - -
23/07:30am 10.5 N 7 13 1016.6 - 0.0 - - - - - - -
23/07:00am 10.8 NNW 10 25 1016.6 - 0.0 - - - - - - -
23/06:30am 10.8 NNW 11 23 1016.6 - 0.0 - - - - - - -
23/06:00am 10.9 NW 14 26 1016.7 - 0.0 - - - - - - -
23/05:30am 11.1 NW 15 28 1016.3 - 0.0 - - - - - - -
23/05:28am 11.0 NW 15 28 1016.4 - 0.0 - - - - - - -
23/05:00am 11.0 NNW 10 21 1016.6 - 0.0 - - - - - - -
23/04:45am 11.1 NW 16 27 1016.7 - 0.0 - - - - - - -
23/04:30am 11.0 NW 7 25 1017.1 - 0.0 - - - - - - -
23/04:00am 11.0 NNW 12 24 1017.2 - 0.0 - - - - - - -
23/03:30am 11.1 NNW 14 24 1017.5 - 0.0 - - - - - - -
23/03:00am 11.1 NW 12 25 1018.0 - 0.0 - - - - - - -
23/02:33am 11.1 NW 15 25 1018.1 - 0.0 - - - - - - -
23/02:30am 11.2 NNW 13 25 1018.2 - 0.0 - - - - - - -
23/02:00am 11.2 NW 12 22 1018.4 - 0.0 - - - - - - -
23/01:51am 11.2 NW 15 25 1018.4 - 0.0 - - - - - - -
23/01:30am 11.1 NW 13 23 1018.5 - 0.0 - - - - - - -
23/01:00am 11.2 NW 10 24 1018.8 - 0.0 - - - - - - -
23/12:30am 11.2 NW 12 22 1019.1 - 0.0 - - - - - - -
23/12:00am 11.3 NW 14 27 1019.5 - 0.0 - - - - - - -
 
Date/Time
EST
Temp
°C
Wind Pressure Rain since
9am
mm
Weather Cloud Vis
km
Sea
Height
m
Swell
Dir  Spd
kts
Gust
kts
hPa Trend Height
m
Period
s
Dir
22/11:36pm 11.5 NNW 15 28 1019.5 - 0.0 - - - - - - -
22/11:30pm 11.3 NW 12 22 1019.7 - 0.0 - - - - - - -
22/11:08pm 11.5 NW 15 31 1020.0 - 0.0 - - - - - - -
22/11:00pm 11.4 NW 13 24 1020.3 - 0.0 - - - - - - -
22/10:30pm 11.1 NNW 9 22 1020.5 - 0.0 - - - - - - -
22/10:06pm 11.2 NW 15 25 1020.6 - 0.0 - - - - - - -
22/10:00pm 11.2 NW 13 24 1020.6 - 0.0 - - - - - - -
22/09:45pm 11.3 NW 15 26 1020.8 - 0.0 - - - - - - -
22/09:30pm 11.3 NW 12 24 1021.1 - 0.0 - - - - - - -
22/09:00pm 11.6 NW 15 27 1021.5 - 0.0 - - - - - - -
22/08:53pm 11.6 NW 15 27 1021.3 - 0.0 - - - - - - -
22/08:30pm 11.4 NW 11 21 1021.6 - 0.0 - - - - - - -
22/08:00pm 11.4 NW 10 23 1021.9 - 0.0 - - - - - - -
22/07:30pm 11.4 NNW 7 22 1022.0 - 0.0 - - - - - - -
22/07:00pm 11.3 NW 18 25 1022.0 - 0.0 - - - - - - -
22/06:30pm 10.9 NNW 8 15 1022.3 - 0.0 - - - - - - -
22/06:00pm 10.8 NNW 7 13 1022.5 - 0.0 - - - - - - -
22/05:30pm 10.7 NNW 5 8 1022.7 - 0.0 - - - - - - -
22/05:00pm 10.9 N 5 9 1022.9 - 0.0 - - - - - - -
22/04:30pm 11.2 NNE 3 6 1023.2 - 0.0 - - - - - - -
22/04:00pm 11.3 NNW 5 9 1023.3 - 0.0 - - - - - - -
22/03:30pm 11.3 WNW 9 18 1023.5 - 0.0 - - - - - - -
22/03:00pm 11.5 WNW 8 12 1023.8 - 0.0 - - - - - - -
22/02:30pm 11.5 W 10 18 1024.0 - 0.0 - - - - - - -
22/02:00pm 11.9 W 9 15 1024.2 - 0.0 - - - - - - -
22/01:30pm 12.1 WNW 7 11 1024.5 - 0.0 - - - - - - -
22/01:00pm 12.2 WSW 4 8 1024.9 - 0.0 - - - - - - -
22/12:30pm 11.6 W 6 9 1025.4 - 0.0 - - - - - - -
22/12:00pm 11.9 NNW 5 11 1026.0 - 0.0 - - - - - - -
22/11:30am 11.7 NNW 8 15 1026.4 - 0.0 - - - - - - -
22/11:00am 11.7 NNW 7 13 1026.5 - 0.0 - - - - - - -
22/10:30am 12.2 N 5 9 1026.8 - 0.0 - - - - - - -
22/10:00am 12.4 N 7 11 1026.7 - 0.0 - - - - - - -
22/09:30am 12.0 NNW 8 11 1027.2 - 0.0 - - - - - - -
22/09:00am 10.6 NNW 9 13 1027.4 - 0.4 - - - - - - -
22/08:30am 9.9 NW 9 13 1027.5 - 0.4 - - - - - - -
22/08:00am 9.8 NW 8 11 1027.4 - 0.4 - - - - - - -
22/07:30am 9.7 NW 6 10 1027.3 - 0.4 - - - - - - -
22/07:00am 9.6 W 9 11 1027.1 - 0.4 - - - - - - -
22/06:30am 9.6 W 7 8 1026.9 - 0.4 - - - - - - -
22/06:00am 9.7 W 4 5 1027.1 - 0.4 - - - - - - -
22/05:30am 9.8 W 6 8 1027.2 - 0.4 - - - - - - -
22/05:00am 10.0 WNW 8 9 1026.9 - 0.4 - - - - - - -
22/04:30am 9.8 NNW 5 7 1027.1 - 0.4 - - - - - - -
22/04:00am 9.8 NW 1 3 1027.1 - 0.4 - - - - - - -
22/03:30am 9.7 NNW 4 5 1027.3 - 0.4 - - - - - - -
22/03:00am 9.8 N 5 5 1027.5 - 0.4 - - - - - - -
22/02:30am 9.8 NNE 3 6 1027.6 - 0.4 - - - - - - -
22/02:00am 9.7 N 4 4 1027.7 - 0.4 - - - - - - -
22/01:30am 9.5 N 5 5 1027.7 - 0.4 - - - - - - -
22/01:00am 9.6 N 5 6 1028.0 - 0.4 - - - - - - -
22/12:30am 9.5 N 4 6 1028.2 - 0.4 - - - - - - -
22/12:00am 9.3 N 4 5 1028.7 - 0.4 - - - - - - -
 
Date/Time
EST
Temp
°C
Wind Pressure Rain since
9am
mm
Weather Cloud Vis
km
Sea
Height
m
Swell
Dir  Spd
kts
Gust
kts
hPa Trend Height
m
Period
s
Dir
21/11:30pm 9.1 N 5 6 1028.6 - 0.4 - - - - - - -
21/11:00pm 9.0 NNE 6 7 1028.9 - 0.4 - - - - - - -
21/10:30pm 8.9 NE 7 8 1029.0 - 0.4 - - - - - - -
21/10:00pm 9.1 NW 5 7 1029.1 - 0.4 - - - - - - -
21/09:30pm 9.7 WNW 5 6 1029.1 - 0.0 - - - - - - -
21/09:00pm 9.6 W 4 6 1029.1 - 0.0 - - - - - - -

Other Formats:

Comma delimited format used in spreadsheet applications
http://www.bom.gov.au/fwo/IDT60701/IDT60701.94893.axf

JavaScript Object Notation format (JSON) in row-major order
http://www.bom.gov.au/fwo/IDT60701/IDT60701.94893.json